createdAt,value
2023-04-06T00:01:01.097Z,95510.59
2023-04-06T00:04:43.863Z,95505.38
2023-04-06T00:08:27.310Z,95511.19
2023-04-06T00:12:10.054Z,95499.44
2023-04-06T00:15:52.803Z,95497.97
2023-04-06T00:19:37.011Z,95498.72
2023-04-06T00:23:19.933Z,95496.13
2023-04-06T00:27:03.095Z,95494.13
2023-04-06T00:30:45.832Z,95499.03
2023-04-06T00:34:28.595Z,95500.16
2023-04-06T00:38:12.670Z,95499.28
2023-04-06T00:41:56.042Z,95496.00
2023-04-06T00:45:40.459Z,95492.91
2023-04-06T00:49:23.233Z,95494.63
2023-04-06T00:53:06.125Z,95506.94
2023-04-06T00:56:50.254Z,95500.78
2023-04-06T01:00:34.142Z,95503.69
2023-04-06T01:04:17.224Z,95500.34
2023-04-06T01:07:59.972Z,95499.94
2023-04-06T01:11:42.712Z,95498.06
2023-04-06T01:15:27.985Z,95506.59
2023-04-06T01:19:13.050Z,95495.63
2023-04-06T01:22:57.150Z,95494.09
2023-04-06T01:26:40.469Z,95490.75
2023-04-06T01:30:26.170Z,95492.75
2023-04-06T01:34:09.047Z,95481.28
2023-04-06T01:37:51.834Z,95482.91
2023-04-06T01:41:36.072Z,95484.97
2023-04-06T01:45:18.778Z,95488.81
2023-04-06T01:49:01.594Z,95475.91
2023-04-06T01:52:44.341Z,95469.69
2023-04-06T01:56:27.481Z,95477.25
2023-04-06T02:00:13.217Z,95469.19
2023-04-06T02:03:56.034Z,95474.41
2023-04-06T02:07:38.874Z,95471.28
2023-04-06T02:11:21.613Z,95478.88
2023-04-06T02:15:04.628Z,95467.75
2023-04-06T02:18:48.759Z,95469.53
2023-04-06T02:22:31.478Z,95466.94
2023-04-06T02:26:14.171Z,95465.88
2023-04-06T02:29:56.906Z,95459.78
2023-04-06T02:33:39.695Z,95468.47
2023-04-06T02:37:24.929Z,95470.78
2023-04-06T02:41:07.737Z,95469.72
2023-04-06T02:44:50.657Z,95469.78
2023-04-06T02:48:36.942Z,95466.31
2023-04-06T02:52:19.916Z,95450.84
2023-04-06T02:56:04.125Z,95460.91
2023-04-06T02:59:46.948Z,95459.97
2023-04-06T03:03:29.732Z,95456.13
2023-04-06T03:07:12.917Z,95455.41
2023-04-06T03:10:55.899Z,95464.47
2023-04-06T03:14:40.016Z,95462.75
2023-04-06T03:18:23.948Z,95468.31
2023-04-06T03:22:06.699Z,95456.16
2023-04-06T03:25:49.457Z,95459.13
2023-04-06T03:29:32.278Z,95457.25
2023-04-06T03:33:16.374Z,95460.50
2023-04-06T03:37:09.355Z,95456.94
2023-04-06T03:40:52.927Z,95470.34
2023-04-06T03:44:35.722Z,95468.66
2023-04-06T03:48:19.827Z,95463.22
2023-04-06T03:52:03.156Z,95477.00
2023-04-06T03:55:46.018Z,95476.88
2023-04-06T03:59:28.863Z,95472.78
2023-04-06T04:03:11.748Z,95473.59
2023-04-06T04:06:56.106Z,95477.28
2023-04-06T04:10:38.878Z,95485.44
2023-04-06T04:14:21.615Z,95490.47
2023-04-06T04:18:04.595Z,95484.38
2023-04-06T04:21:48.605Z,95489.81
2023-04-06T04:25:32.736Z,95480.81
2023-04-06T04:29:16.293Z,95482.03
2023-04-06T04:32:59.256Z,95486.00
2023-04-06T04:36:43.015Z,95488.97
2023-04-06T04:40:25.810Z,95486.78
2023-04-06T04:44:12.820Z,95484.88
2023-04-06T04:47:55.780Z,95487.91
2023-04-06T04:51:38.647Z,95496.59
2023-04-06T04:55:21.509Z,95495.50
2023-04-06T04:59:04.307Z,95494.44
2023-04-06T05:02:48.529Z,95495.63
2023-04-06T05:06:31.932Z,95492.75
2023-04-06T05:10:14.855Z,95493.56
2023-04-06T05:13:59.813Z,95492.19
2023-04-06T05:17:43.307Z,95500.88
2023-04-06T05:21:29.107Z,95498.53
2023-04-06T05:25:12.013Z,95498.69
2023-04-06T05:28:55.669Z,95501.66
2023-04-06T05:32:38.783Z,95505.22
2023-04-06T05:36:21.545Z,95504.63
2023-04-06T05:40:09.220Z,95500.22
2023-04-06T05:43:51.970Z,95510.88
2023-04-06T05:47:34.780Z,95505.06
2023-04-06T05:51:17.595Z,95500.25
2023-04-06T05:55:00.336Z,95509.56
2023-04-06T05:58:44.675Z,95516.75
2023-04-06T06:02:27.563Z,95512.66
2023-04-06T06:06:10.396Z,95507.53
2023-04-06T06:09:53.114Z,95507.09
2023-04-06T06:13:35.856Z,95501.16
2023-04-06T06:17:20.034Z,95505.59
2023-04-06T06:21:02.944Z,95508.88
2023-04-06T06:24:45.927Z,95509.38
2023-04-06T06:28:28.886Z,95503.28
2023-04-06T06:32:11.680Z,95508.69
2023-04-06T06:35:55.840Z,95510.09
2023-04-06T06:39:38.585Z,95505.91
2023-04-06T06:43:21.312Z,95515.13
2023-04-06T06:47:04.080Z,95509.00
2023-04-06T06:50:47.006Z,95501.00
2023-04-06T06:54:34.242Z,95504.16
2023-04-06T06:58:17.203Z,95509.66
2023-04-06T07:01:59.928Z,95511.38
2023-04-06T07:05:50.107Z,95511.44
2023-04-06T07:09:34.430Z,95514.22
2023-04-06T07:13:21.680Z,95520.41
2023-04-06T07:17:04.574Z,95521.91
2023-04-06T07:20:47.454Z,95525.00
2023-04-06T07:24:30.370Z,95523.22
2023-04-06T07:28:14.548Z,95522.59
2023-04-06T07:31:57.669Z,95528.78
2023-04-06T07:35:40.754Z,95529.75
2023-04-06T07:39:23.504Z,95532.19
2023-04-06T07:43:06.275Z,95528.78
2023-04-06T07:46:50.399Z,95523.25
2023-04-06T07:50:33.206Z,95524.22
2023-04-06T07:54:15.997Z,95520.78
2023-04-06T07:57:58.709Z,95516.53
2023-04-06T08:01:41.468Z,95518.97
2023-04-06T08:05:25.752Z,95523.16
2023-04-06T08:09:08.498Z,95527.25
2023-04-06T08:12:51.247Z,95514.31
2023-04-06T08:16:33.947Z,95513.25
2023-04-06T08:20:16.854Z,95514.88
2023-04-06T08:24:01.024Z,95518.44
2023-04-06T08:27:43.810Z,95518.69
2023-04-06T08:31:27.262Z,95514.09
2023-04-06T08:35:10.457Z,95514.69
2023-04-06T08:38:53.440Z,95513.16
2023-04-06T08:42:42.671Z,95518.00
2023-04-06T08:46:30.398Z,95508.50
2023-04-06T08:50:13.502Z,95513.16
2023-04-06T08:53:57.112Z,95511.16
2023-04-06T08:57:41.692Z,95516.31
2023-04-06T09:01:27.613Z,95512.88
2023-04-06T09:05:10.927Z,95508.66
2023-04-06T09:08:53.690Z,95509.63
2023-04-06T09:12:37.033Z,95503.06
2023-04-06T09:16:21.621Z,95508.09
2023-04-06T09:20:05.745Z,95504.31
2023-04-06T09:23:49.602Z,95504.66
2023-04-06T09:27:32.952Z,95508.63
2023-04-06T09:31:16.086Z,95499.19
2023-04-06T09:35:09.385Z,95498.91
2023-04-06T09:38:56.854Z,95498.47
2023-04-06T09:42:40.781Z,95499.66
2023-04-06T09:46:24.594Z,95493.53
2023-04-06T09:50:10.237Z,95491.53
2023-04-06T09:53:55.563Z,95482.44
2023-04-06T09:57:42.432Z,95497.31
2023-04-06T10:01:28.824Z,95486.50
2023-04-06T10:05:19.276Z,95486.03
2023-04-06T10:09:04.285Z,95474.53
2023-04-06T10:12:47.538Z,95469.66
2023-04-06T10:16:30.942Z,95470.63
2023-04-06T10:20:21.919Z,95467.97
2023-04-06T10:24:10.895Z,95464.19
2023-04-06T10:28:01.263Z,95469.13
2023-04-06T10:31:45.626Z,95466.22
2023-04-06T10:35:40.465Z,95477.69
2023-04-06T10:39:28.051Z,95465.16
2023-04-06T10:43:12.595Z,95467.50
2023-04-06T10:46:56.054Z,95460.97
2023-04-06T10:50:41.103Z,95461.53
2023-04-06T10:54:26.067Z,95458.66
2023-04-06T10:58:09.210Z,95460.53
2023-04-06T11:01:52.032Z,95449.78
2023-04-06T11:05:34.867Z,95443.72
2023-04-06T11:09:27.963Z,95442.44
2023-04-06T11:13:10.800Z,95446.16
2023-04-06T11:16:53.623Z,95429.81
2023-04-06T11:20:36.696Z,95427.13
2023-04-06T11:24:21.208Z,95435.72
2023-04-06T11:28:05.389Z,95419.13
2023-04-06T11:31:48.889Z,95419.97
2023-04-06T11:35:33.663Z,95415.22
2023-04-06T11:39:21.142Z,95409.63
2023-04-06T11:43:07.909Z,95415.66
2023-04-06T11:46:54.487Z,95405.56
2023-04-06T11:50:38.027Z,95408.63
2023-04-06T11:54:31.995Z,95412.25
2023-04-06T11:58:16.327Z,95404.44
2023-04-06T12:01:59.389Z,95399.91
2023-04-06T12:05:43.878Z,95388.75
2023-04-06T12:09:29.172Z,95404.19
2023-04-06T12:13:11.915Z,95404.22
2023-04-06T12:16:56.087Z,95390.56
2023-04-06T12:20:38.822Z,95390.31
2023-04-06T12:24:21.622Z,95397.84
2023-04-06T12:28:04.353Z,95398.59
2023-04-06T12:31:47.351Z,95380.47
2023-04-06T12:35:35.470Z,95383.75
2023-04-06T12:39:21.791Z,95374.00
2023-04-06T12:43:04.646Z,95380.88
2023-04-06T12:46:47.715Z,95358.63
2023-04-06T12:50:31.868Z,95367.94
2023-04-06T12:54:14.876Z,95362.47
2023-04-06T12:57:57.629Z,95359.44
2023-04-06T13:01:40.359Z,95369.16
2023-04-06T13:05:23.122Z,95373.63
2023-04-06T13:09:08.744Z,95348.50
2023-04-06T13:12:53.564Z,95351.13
2023-04-06T13:16:37.451Z,95348.81
2023-04-06T13:20:20.265Z,95333.34
2023-04-06T13:24:03.032Z,95333.16
2023-04-06T13:27:49.547Z,95340.78
2023-04-06T13:31:35.400Z,95342.25
2023-04-06T13:35:18.783Z,95349.56
2023-04-06T13:39:01.539Z,95346.00
2023-04-06T13:42:46.033Z,95339.72
2023-04-06T13:46:30.331Z,95330.84
2023-04-06T13:50:13.232Z,95334.44
2023-04-06T13:53:56.088Z,95319.44
2023-04-06T13:57:38.816Z,95325.91
2023-04-06T14:01:21.532Z,95320.25
2023-04-06T14:05:06.272Z,95320.19
2023-04-06T14:08:49.230Z,95316.19
2023-04-06T14:12:32.694Z,95323.81
2023-04-06T14:16:16.249Z,95327.03
2023-04-06T14:19:58.907Z,95317.16
2023-04-06T14:23:43.216Z,95318.22
2023-04-06T14:27:26.322Z,95322.25
2023-04-06T14:31:14.062Z,95304.84
2023-04-06T14:34:56.803Z,95326.44
2023-04-06T14:38:40.436Z,95310.72
2023-04-06T14:42:24.534Z,95310.72
2023-04-06T14:46:09.418Z,95306.41
2023-04-06T14:49:54.203Z,95302.25
2023-04-06T14:53:36.874Z,95301.63
2023-04-06T14:57:19.629Z,95296.06
2023-04-06T15:01:04.090Z,95307.13
2023-04-06T15:04:46.766Z,95298.75
2023-04-06T15:08:29.421Z,95288.22
2023-04-06T15:12:12.079Z,95301.66
2023-04-06T15:15:54.815Z,95294.06
2023-04-06T15:19:38.946Z,95302.81
2023-04-06T15:23:21.628Z,95307.22
2023-04-06T15:27:04.279Z,95297.41
2023-04-06T15:30:46.952Z,95289.28
2023-04-06T15:34:31.320Z,95294.78
2023-04-06T15:38:15.792Z,95289.34
2023-04-06T15:41:58.471Z,95299.88
2023-04-06T15:45:41.734Z,95291.66
2023-04-06T15:49:24.415Z,95288.88
2023-04-06T15:53:07.273Z,95288.63
2023-04-06T15:56:51.549Z,95284.50
2023-04-06T16:00:34.687Z,95299.38
2023-04-06T16:04:17.409Z,95303.28
2023-04-06T16:08:00.143Z,95300.59
2023-04-06T16:11:42.837Z,95292.94
2023-04-06T16:15:27.025Z,95299.38
2023-04-06T16:19:09.717Z,95291.97
2023-04-06T16:22:52.372Z,95297.97
2023-04-06T16:26:35.530Z,95288.66
2023-04-06T16:30:18.266Z,95284.59
2023-04-06T16:34:02.296Z,95287.19
2023-04-06T16:37:46.476Z,95296.69
2023-04-06T16:41:29.524Z,95296.97
2023-04-06T16:45:12.799Z,95298.00
2023-04-06T16:48:55.843Z,95299.13
2023-04-06T16:52:39.826Z,95292.41
2023-04-06T16:56:22.721Z,95300.41
2023-04-06T17:00:07.458Z,95302.22
2023-04-06T17:03:50.675Z,95297.44
2023-04-06T17:07:35.602Z,95303.25
2023-04-06T17:11:25.496Z,95299.72
2023-04-06T17:15:11.743Z,95294.59
2023-04-06T17:18:54.410Z,95301.56
2023-04-06T17:22:37.145Z,95311.28
2023-04-06T17:26:21.577Z,95305.66
2023-04-06T17:30:06.642Z,95297.56
2023-04-06T17:33:49.748Z,95310.91
2023-04-06T17:37:32.754Z,95319.81
2023-04-06T17:41:16.100Z,95314.94
2023-04-06T17:45:00.527Z,95317.38
2023-04-06T17:48:43.907Z,95321.19
2023-04-06T17:52:27.324Z,95322.19
2023-04-06T17:56:09.977Z,95329.03
2023-04-06T17:59:53.863Z,95339.34
2023-04-06T18:03:38.329Z,95336.31
2023-04-06T18:07:21.101Z,95333.88
2023-04-06T18:11:04.233Z,95339.31
2023-04-06T18:14:46.884Z,95346.34
2023-04-06T18:18:29.594Z,95342.28
2023-04-06T18:22:13.553Z,95357.38
2023-04-06T18:25:56.243Z,95351.88
2023-04-06T18:29:38.912Z,95349.81
2023-04-06T18:33:21.547Z,95351.78
2023-04-06T18:37:04.267Z,95361.44
2023-04-06T18:40:48.289Z,95361.78
2023-04-06T18:44:31.569Z,95365.38
2023-04-06T18:48:14.462Z,95367.16
2023-04-06T18:51:59.261Z,95364.09
2023-04-06T18:55:41.998Z,95370.13
2023-04-06T18:59:30.065Z,95377.34
2023-04-06T19:03:12.847Z,95380.38
2023-04-06T19:06:55.746Z,95392.25
2023-04-06T19:10:38.601Z,95387.09
2023-04-06T19:14:21.245Z,95394.34
2023-04-06T19:18:05.698Z,95390.50
2023-04-06T19:21:49.034Z,95394.69
2023-04-06T19:25:31.962Z,95394.38
2023-04-06T19:29:14.602Z,95394.75
2023-04-06T19:32:57.555Z,95391.44
2023-04-06T19:36:41.697Z,95389.75
2023-04-06T19:40:24.334Z,95383.88
2023-04-06T19:44:07.016Z,95387.69
2023-04-06T19:47:49.937Z,95398.53
2023-04-06T19:51:33.578Z,95397.09
2023-04-06T19:55:17.942Z,95402.22
2023-04-06T19:59:00.902Z,95389.25
2023-04-06T20:02:43.723Z,95401.34
2023-04-06T20:06:26.677Z,95409.28
2023-04-06T20:10:09.795Z,95398.94
2023-04-06T20:13:53.760Z,95392.19
2023-04-06T20:17:36.493Z,95401.06
2023-04-06T20:21:19.184Z,95396.00
2023-04-06T20:25:01.826Z,95394.94
2023-04-06T20:28:44.502Z,95394.13
2023-04-06T20:32:28.619Z,95394.94
2023-04-06T20:36:11.412Z,95387.25
2023-04-06T20:39:54.062Z,95389.69
2023-04-06T20:43:36.688Z,95387.63
2023-04-06T20:47:19.385Z,95387.19
2023-04-06T20:51:04.026Z,95380.69
2023-04-06T20:54:46.728Z,95381.69
2023-04-06T20:58:29.387Z,95387.94
2023-04-06T21:02:12.186Z,95379.81
2023-04-06T21:05:55.857Z,95380.25
2023-04-06T21:09:40.995Z,95380.09
2023-04-06T21:13:23.634Z,95381.81
2023-04-06T21:17:06.895Z,95381.94
2023-04-06T21:20:49.864Z,95386.06
2023-04-06T21:24:32.502Z,95369.94
2023-04-06T21:28:16.555Z,95379.22
2023-04-06T21:31:59.269Z,95373.19
2023-04-06T21:35:42.246Z,95363.53
2023-04-06T21:39:25.341Z,95367.59
2023-04-06T21:43:08.028Z,95367.59
2023-04-06T21:46:52.076Z,95364.97
2023-04-06T21:50:34.727Z,95369.41
2023-04-06T21:54:17.653Z,95368.81
2023-04-06T21:58:00.910Z,95370.56
2023-04-06T22:01:43.680Z,95372.06
2023-04-06T22:05:27.719Z,95370.72
2023-04-06T22:09:10.677Z,95364.13
2023-04-06T22:12:53.403Z,95359.81
2023-04-06T22:16:36.197Z,95357.72
2023-04-06T22:20:18.981Z,95352.59
2023-04-06T22:24:03.013Z,95350.97
2023-04-06T22:27:45.717Z,95345.66
2023-04-06T22:31:28.406Z,95337.63
2023-04-06T22:35:11.293Z,95342.50
2023-04-06T22:38:58.210Z,95337.00
2023-04-06T22:42:42.283Z,95348.19
2023-04-06T22:46:24.930Z,95337.09
2023-04-06T22:50:09.277Z,95327.53
2023-04-06T22:53:52.733Z,95335.44
2023-04-06T22:57:35.427Z,95335.34
2023-04-06T23:01:19.477Z,95334.38
2023-04-06T23:05:02.170Z,95336.34
2023-04-06T23:08:44.815Z,95344.59
2023-04-06T23:12:27.521Z,95334.56
2023-04-06T23:16:10.628Z,95325.25
2023-04-06T23:19:54.723Z,95330.81
2023-04-06T23:23:37.446Z,95326.97
2023-04-06T23:27:20.131Z,95320.16
2023-04-06T23:31:02.748Z,95319.69
2023-04-06T23:34:45.621Z,95318.28
2023-04-06T23:38:29.606Z,95326.22
2023-04-06T23:42:12.253Z,95324.66
2023-04-06T23:45:54.969Z,95323.75
2023-04-06T23:49:37.606Z,95319.19
2023-04-06T23:53:20.232Z,95314.31
2023-04-06T23:57:04.501Z,95311.41
